Main page
METAR-TAF:

METAR-TAF

Airports :

Aérodrome de Dax - Seyresse

Dax, France

latitude: 43-41N, longitude: 001-04W, elevation: 32 m

Current weather observation

The report was made 7 minutes ago, at 21:00 UTC
Wind 3 kt from the North
Temperature 1°C
Humidity 86%
Pressure 1034 hPa
Visibility: 7000 m

METAR: LFBY 212100Z AUTO 35003KT 7000 // ////// 01/M01 Q1034

Time: 22:07 (21:07 UTC)

Forecast

The report was made 13 hours and 7 minutes ago, at 08:00 UTC
Forecast valid from 21 at 09 UTC to 21 at 18 UTC
Wind 3 kt from the East/Southeast
Visibility: 8000 m
Scattered clouds at a height of 400 ft
Shallow fog
Becoming
from 21 at 09 UTC to 21 at 11 UTC
Visibility 10 km or more
Broken clouds at a height of 1000 ft
Becoming
from 21 at 12 UTC to 21 at 14 UTC
Broken clouds at a height of 1500 ft

TAF: LFBY 210800Z 2109/2118 12003KT 8000 MIFG SCT004 BECMG 2109/2111 9999 NSW BKN010 BECMG 2112/2114 BKN015

Weather observations and forecasts of more than 4000 airports (METAR and TAF reports).

The available stations are represented by yellow and red dots on the map.

Hover mouse over dot to see the name of the station.

Then click to see weather observations and forecasts.

To change the map : click on the green buttons with a black cross to zoom in, on the green button with a dash to zoom out, or on the green arrows for adjacent maps.


METAR-TAF: